sensor_id;sensor_type;location;lat;lon;timestamp;P1;durP1;ratioP1;P2;durP2;ratioP2
66421;SDS011;53228;51.380;0.098;2023-10-08T00:01:17;12.77;;;3.83;;
66421;SDS011;53228;51.380;0.098;2023-10-08T00:03:46;11.48;;;3.17;;
66421;SDS011;53228;51.380;0.098;2023-10-08T00:06:19;13.43;;;4.43;;
66421;SDS011;53228;51.380;0.098;2023-10-08T00:08:50;9.32;;;3.85;;
66421;SDS011;53228;51.380;0.098;2023-10-08T00:11:18;8.05;;;3.42;;
66421;SDS011;53228;51.380;0.098;2023-10-08T00:13:46;7.85;;;3.40;;
66421;SDS011;53228;51.380;0.098;2023-10-08T00:16:16;9.85;;;4.45;;
66421;SDS011;53228;51.380;0.098;2023-10-08T00:18:46;13.02;;;3.97;;
66421;SDS011;53228;51.380;0.098;2023-10-08T00:21:18;12.75;;;3.97;;
66421;SDS011;53228;51.380;0.098;2023-10-08T00:23:47;9.80;;;3.88;;
66421;SDS011;53228;51.380;0.098;2023-10-08T00:26:28;7.75;;;3.78;;
66421;SDS011;53228;51.380;0.098;2023-10-08T00:28:59;11.32;;;4.28;;
66421;SDS011;53228;51.380;0.098;2023-10-08T00:31:28;8.00;;;3.13;;
66421;SDS011;53228;51.380;0.098;2023-10-08T00:33:59;8.82;;;3.20;;
66421;SDS011;53228;51.380;0.098;2023-10-08T00:36:27;10.27;;;4.00;;
66421;SDS011;53228;51.380;0.098;2023-10-08T00:38:54;10.43;;;3.65;;
66421;SDS011;53228;51.380;0.098;2023-10-08T00:41:26;9.15;;;3.58;;
66421;SDS011;53228;51.380;0.098;2023-10-08T00:44:00;7.88;;;2.97;;
66421;SDS011;53228;51.380;0.098;2023-10-08T00:46:29;10.55;;;3.30;;
66421;SDS011;53228;51.380;0.098;2023-10-08T00:49:03;10.40;;;3.53;;
66421;SDS011;53228;51.380;0.098;2023-10-08T00:51:49;9.07;;;2.85;;
66421;SDS011;53228;51.380;0.098;2023-10-08T00:54:42;9.13;;;3.17;;
66421;SDS011;53228;51.380;0.098;2023-10-08T00:57:42;11.30;;;3.35;;
66421;SDS011;53228;51.380;0.098;2023-10-08T01:00:14;7.93;;;3.20;;
66421;SDS011;53228;51.380;0.098;2023-10-08T01:02:48;6.47;;;2.80;;
66421;SDS011;53228;51.380;0.098;2023-10-08T01:05:22;9.02;;;3.80;;
66421;SDS011;53228;51.380;0.098;2023-10-08T01:07:56;8.07;;;3.28;;
66421;SDS011;53228;51.380;0.098;2023-10-08T01:10:25;8.73;;;3.13;;
66421;SDS011;53228;51.380;0.098;2023-10-08T01:12:53;7.88;;;3.35;;
66421;SDS011;53228;51.380;0.098;2023-10-08T01:15:21;8.93;;;2.90;;
66421;SDS011;53228;51.380;0.098;2023-10-08T01:17:56;8.65;;;3.53;;
66421;SDS011;53228;51.380;0.098;2023-10-08T01:20:28;8.10;;;3.50;;
66421;SDS011;53228;51.380;0.098;2023-10-08T01:23:04;9.82;;;3.95;;
66421;SDS011;53228;51.380;0.098;2023-10-08T01:25:37;11.73;;;3.15;;
66421;SDS011;53228;51.380;0.098;2023-10-08T01:28:05;9.02;;;3.47;;
66421;SDS011;53228;51.380;0.098;2023-10-08T01:30:42;9.50;;;3.78;;
66421;SDS011;53228;51.380;0.098;2023-10-08T01:33:14;10.85;;;4.00;;
66421;SDS011;53228;51.380;0.098;2023-10-08T01:35:48;9.48;;;4.85;;
66421;SDS011;53228;51.380;0.098;2023-10-08T01:38:15;14.73;;;5.13;;
66421;SDS011;53228;51.380;0.098;2023-10-08T01:40:50;13.02;;;4.53;;
66421;SDS011;53228;51.380;0.098;2023-10-08T01:43:18;10.05;;;4.70;;
66421;SDS011;53228;51.380;0.098;2023-10-08T01:45:47;10.57;;;3.53;;
66421;SDS011;53228;51.380;0.098;2023-10-08T01:48:17;7.22;;;3.40;;
66421;SDS011;53228;51.380;0.098;2023-10-08T01:50:55;10.10;;;3.72;;
66421;SDS011;53228;51.380;0.098;2023-10-08T01:53:25;10.23;;;3.33;;
66421;SDS011;53228;51.380;0.098;2023-10-08T01:55:53;8.55;;;3.00;;
66421;SDS011;53228;51.380;0.098;2023-10-08T01:58:22;11.77;;;3.90;;
66421;SDS011;53228;51.380;0.098;2023-10-08T02:00:51;8.75;;;3.53;;
66421;SDS011;53228;51.380;0.098;2023-10-08T02:03:25;12.52;;;3.13;;
66421;SDS011;53228;51.380;0.098;2023-10-08T02:05:56;8.32;;;3.38;;
66421;SDS011;53228;51.380;0.098;2023-10-08T02:08:27;13.75;;;3.95;;
66421;SDS011;53228;51.380;0.098;2023-10-08T02:10:54;9.73;;;3.28;;
66421;SDS011;53228;51.380;0.098;2023-10-08T02:13:23;8.23;;;3.35;;
66421;SDS011;53228;51.380;0.098;2023-10-08T02:15:52;9.85;;;4.10;;
66421;SDS011;53228;51.380;0.098;2023-10-08T02:18:20;11.68;;;3.83;;
66421;SDS011;53228;51.380;0.098;2023-10-08T02:20:51;7.38;;;3.10;;
66421;SDS011;53228;51.380;0.098;2023-10-08T02:23:20;10.48;;;3.67;;
66421;SDS011;53228;51.380;0.098;2023-10-08T02:25:48;10.82;;;3.88;;
66421;SDS011;53228;51.380;0.098;2023-10-08T02:28:16;9.30;;;3.40;;
66421;SDS011;53228;51.380;0.098;2023-10-08T02:30:47;12.18;;;4.15;;
66421;SDS011;53228;51.380;0.098;2023-10-08T02:33:14;8.95;;;4.07;;
66421;SDS011;53228;51.380;0.098;2023-10-08T02:35:44;8.30;;;3.58;;
66421;SDS011;53228;51.380;0.098;2023-10-08T02:38:14;8.15;;;3.47;;
66421;SDS011;53228;51.380;0.098;2023-10-08T02:40:44;8.18;;;3.13;;
66421;SDS011;53228;51.380;0.098;2023-10-08T02:43:16;9.48;;;4.15;;
66421;SDS011;53228;51.380;0.098;2023-10-08T02:45:45;9.60;;;3.85;;
66421;SDS011;53228;51.380;0.098;2023-10-08T02:48:17;10.60;;;3.58;;
66421;SDS011;53228;51.380;0.098;2023-10-08T02:50:47;9.10;;;3.35;;
66421;SDS011;53228;51.380;0.098;2023-10-08T02:53:15;8.13;;;3.42;;
66421;SDS011;53228;51.380;0.098;2023-10-08T02:55:48;8.45;;;3.33;;
66421;SDS011;53228;51.380;0.098;2023-10-08T02:58:17;7.07;;;2.95;;
66421;SDS011;53228;51.380;0.098;2023-10-08T03:00:48;10.60;;;3.50;;
66421;SDS011;53228;51.380;0.098;2023-10-08T03:03:17;11.65;;;4.15;;
66421;SDS011;53228;51.380;0.098;2023-10-08T03:05:51;12.05;;;3.80;;
66421;SDS011;53228;51.380;0.098;2023-10-08T03:08:19;8.73;;;3.60;;
66421;SDS011;53228;51.380;0.098;2023-10-08T03:10:52;8.38;;;3.10;;
66421;SDS011;53228;51.380;0.098;2023-10-08T03:13:24;8.10;;;3.50;;
66421;SDS011;53228;51.380;0.098;2023-10-08T03:15:54;7.53;;;3.10;;
66421;SDS011;53228;51.380;0.098;2023-10-08T03:18:35;10.07;;;3.65;;
66421;SDS011;53228;51.380;0.098;2023-10-08T03:21:05;7.10;;;3.17;;
66421;SDS011;53228;51.380;0.098;2023-10-08T03:23:51;5.93;;;3.20;;
66421;SDS011;53228;51.380;0.098;2023-10-08T03:26:19;8.75;;;3.90;;
66421;SDS011;53228;51.380;0.098;2023-10-08T03:28:56;8.95;;;3.13;;
66421;SDS011;53228;51.380;0.098;2023-10-08T03:31:27;10.63;;;4.53;;
66421;SDS011;53228;51.380;0.098;2023-10-08T03:34:15;11.00;;;3.55;;
66421;SDS011;53228;51.380;0.098;2023-10-08T03:36:46;7.47;;;3.13;;
66421;SDS011;53228;51.380;0.098;2023-10-08T03:39:17;5.38;;;3.20;;
66421;SDS011;53228;51.380;0.098;2023-10-08T03:41:46;8.70;;;3.75;;
66421;SDS011;53228;51.380;0.098;2023-10-08T03:44:33;8.40;;;3.33;;
66421;SDS011;53228;51.380;0.098;2023-10-08T03:47:05;9.75;;;3.45;;
66421;SDS011;53228;51.380;0.098;2023-10-08T03:49:38;7.80;;;3.45;;
66421;SDS011;53228;51.380;0.098;2023-10-08T03:52:13;12.50;;;3.67;;
66421;SDS011;53228;51.380;0.098;2023-10-08T03:54:41;9.90;;;3.35;;
66421;SDS011;53228;51.380;0.098;2023-10-08T03:57:16;9.02;;;3.20;;
66421;SDS011;53228;51.380;0.098;2023-10-08T03:59:52;9.98;;;3.95;;
66421;SDS011;53228;51.380;0.098;2023-10-08T04:02:26;8.15;;;3.28;;
66421;SDS011;53228;51.380;0.098;2023-10-08T04:05:07;12.15;;;3.50;;
66421;SDS011;53228;51.380;0.098;2023-10-08T04:07:46;9.57;;;3.97;;
66421;SDS011;53228;51.380;0.098;2023-10-08T04:10:29;10.68;;;3.67;;
66421;SDS011;53228;51.380;0.098;2023-10-08T04:13:04;7.65;;;4.18;;
66421;SDS011;53228;51.380;0.098;2023-10-08T04:15:43;9.95;;;3.83;;
66421;SDS011;53228;51.380;0.098;2023-10-08T04:18:11;9.68;;;3.97;;
66421;SDS011;53228;51.380;0.098;2023-10-08T04:20:40;9.13;;;3.95;;
66421;SDS011;53228;51.380;0.098;2023-10-08T04:23:27;10.57;;;3.40;;
66421;SDS011;53228;51.380;0.098;2023-10-08T04:25:56;11.95;;;4.20;;
66421;SDS011;53228;51.380;0.098;2023-10-08T04:28:24;10.07;;;3.75;;
66421;SDS011;53228;51.380;0.098;2023-10-08T04:30:56;10.57;;;3.75;;
66421;SDS011;53228;51.380;0.098;2023-10-08T04:33:29;10.48;;;3.58;;
66421;SDS011;53228;51.380;0.098;2023-10-08T04:36:01;8.70;;;3.75;;
66421;SDS011;53228;51.380;0.098;2023-10-08T04:38:29;10.68;;;4.13;;
66421;SDS011;53228;51.380;0.098;2023-10-08T04:41:03;8.40;;;3.85;;
66421;SDS011;53228;51.380;0.098;2023-10-08T04:43:35;11.50;;;4.10;;
66421;SDS011;53228;51.380;0.098;2023-10-08T04:46:09;9.73;;;3.97;;
66421;SDS011;53228;51.380;0.098;2023-10-08T04:51:46;10.02;;;3.92;;
66421;SDS011;53228;51.380;0.098;2023-10-08T04:54:16;8.80;;;4.15;;
66421;SDS011;53228;51.380;0.098;2023-10-08T04:56:44;9.02;;;3.53;;
66421;SDS011;53228;51.380;0.098;2023-10-08T04:59:11;11.10;;;4.53;;
66421;SDS011;53228;51.380;0.098;2023-10-08T05:01:40;10.95;;;3.72;;
66421;SDS011;53228;51.380;0.098;2023-10-08T05:04:15;10.57;;;5.13;;
66421;SDS011;53228;51.380;0.098;2023-10-08T05:06:58;11.43;;;3.97;;
66421;SDS011;53228;51.380;0.098;2023-10-08T05:09:44;11.25;;;3.90;;
66421;SDS011;53228;51.380;0.098;2023-10-08T05:12:19;10.98;;;4.28;;
66421;SDS011;53228;51.380;0.098;2023-10-08T05:15:01;11.35;;;4.05;;
66421;SDS011;53228;51.380;0.098;2023-10-08T05:17:45;10.48;;;3.97;;
66421;SDS011;53228;51.380;0.098;2023-10-08T05:20:16;14.02;;;4.00;;
66421;SDS011;53228;51.380;0.098;2023-10-08T05:23:07;8.48;;;4.25;;
66421;SDS011;53228;51.380;0.098;2023-10-08T05:25:52;10.70;;;4.57;;
66421;SDS011;53228;51.380;0.098;2023-10-08T05:28:33;16.27;;;4.85;;
66421;SDS011;53228;51.380;0.098;2023-10-08T05:31:28;11.20;;;4.00;;
66421;SDS011;53228;51.380;0.098;2023-10-08T05:34:13;8.80;;;3.75;;
66421;SDS011;53228;51.380;0.098;2023-10-08T05:36:44;9.98;;;4.57;;
66421;SDS011;53228;51.380;0.098;2023-10-08T05:39:27;10.73;;;3.75;;
66421;SDS011;53228;51.380;0.098;2023-10-08T05:42:07;11.43;;;4.30;;
66421;SDS011;53228;51.380;0.098;2023-10-08T05:44:47;9.27;;;4.18;;
66421;SDS011;53228;51.380;0.098;2023-10-08T05:47:33;11.70;;;4.45;;
66421;SDS011;53228;51.380;0.098;2023-10-08T05:50:02;7.25;;;4.03;;
66421;SDS011;53228;51.380;0.098;2023-10-08T05:52:47;10.30;;;4.22;;
66421;SDS011;53228;51.380;0.098;2023-10-08T05:55:20;12.02;;;5.07;;
66421;SDS011;53228;51.380;0.098;2023-10-08T05:57:54;9.73;;;4.43;;
66421;SDS011;53228;51.380;0.098;2023-10-08T06:00:46;10.43;;;4.47;;
66421;SDS011;53228;51.380;0.098;2023-10-08T06:03:18;10.40;;;3.80;;
66421;SDS011;53228;51.380;0.098;2023-10-08T06:06:04;11.07;;;4.47;;
66421;SDS011;53228;51.380;0.098;2023-10-08T06:08:39;8.65;;;4.30;;
66421;SDS011;53228;51.380;0.098;2023-10-08T06:11:19;10.77;;;4.25;;
66421;SDS011;53228;51.380;0.098;2023-10-08T06:14:06;14.15;;;4.72;;
66421;SDS011;53228;51.380;0.098;2023-10-08T06:17:03;9.77;;;4.20;;
66421;SDS011;53228;51.380;0.098;2023-10-08T06:19:50;10.75;;;4.75;;
66421;SDS011;53228;51.380;0.098;2023-10-08T06:22:19;11.50;;;5.60;;
66421;SDS011;53228;51.380;0.098;2023-10-08T06:24:53;13.23;;;5.22;;
66421;SDS011;53228;51.380;0.098;2023-10-08T06:27:40;11.95;;;5.80;;
66421;SDS011;53228;51.380;0.098;2023-10-08T06:30:08;15.13;;;5.57;;
66421;SDS011;53228;51.380;0.098;2023-10-08T06:32:44;13.88;;;6.30;;
66421;SDS011;53228;51.380;0.098;2023-10-08T06:35:12;14.70;;;6.93;;
66421;SDS011;53228;51.380;0.098;2023-10-08T06:37:45;18.10;;;7.25;;
66421;SDS011;53228;51.380;0.098;2023-10-08T06:40:16;14.70;;;7.40;;
66421;SDS011;53228;51.380;0.098;2023-10-08T06:43:02;14.52;;;6.38;;
66421;SDS011;53228;51.380;0.098;2023-10-08T06:45:39;18.17;;;7.00;;
66421;SDS011;53228;51.380;0.098;2023-10-08T06:48:13;14.40;;;6.55;;
66421;SDS011;53228;51.380;0.098;2023-10-08T06:50:48;13.18;;;6.53;;
66421;SDS011;53228;51.380;0.098;2023-10-08T06:53:18;15.15;;;6.72;;
66421;SDS011;53228;51.380;0.098;2023-10-08T06:55:46;13.65;;;6.15;;
66421;SDS011;53228;51.380;0.098;2023-10-08T06:58:15;15.23;;;6.43;;
66421;SDS011;53228;51.380;0.098;2023-10-08T07:00:44;20.23;;;7.72;;
66421;SDS011;53228;51.380;0.098;2023-10-08T07:03:16;14.02;;;6.65;;
66421;SDS011;53228;51.380;0.098;2023-10-08T07:05:45;15.02;;;7.35;;
66421;SDS011;53228;51.380;0.098;2023-10-08T07:08:28;16.88;;;6.95;;
66421;SDS011;53228;51.380;0.098;2023-10-08T07:10:59;14.50;;;6.47;;
66421;SDS011;53228;51.380;0.098;2023-10-08T07:13:32;14.63;;;6.68;;
66421;SDS011;53228;51.380;0.098;2023-10-08T07:16:03;19.05;;;6.20;;
66421;SDS011;53228;51.380;0.098;2023-10-08T07:18:31;15.98;;;6.07;;
66421;SDS011;53228;51.380;0.098;2023-10-08T07:21:01;15.55;;;6.43;;
66421;SDS011;53228;51.380;0.098;2023-10-08T07:23:41;21.38;;;6.05;;
66421;SDS011;53228;51.380;0.098;2023-10-08T07:28:53;14.63;;;5.85;;
66421;SDS011;53228;51.380;0.098;2023-10-08T07:31:21;15.57;;;6.03;;
66421;SDS011;53228;51.380;0.098;2023-10-08T07:33:51;18.38;;;6.70;;
66421;SDS011;53228;51.380;0.098;2023-10-08T07:36:24;12.73;;;6.05;;
66421;SDS011;53228;51.380;0.098;2023-10-08T07:38:53;11.32;;;5.32;;
66421;SDS011;53228;51.380;0.098;2023-10-08T07:41:21;11.65;;;5.43;;
66421;SDS011;53228;51.380;0.098;2023-10-08T07:43:50;15.38;;;5.93;;
66421;SDS011;53228;51.380;0.098;2023-10-08T07:46:25;12.25;;;5.45;;
66421;SDS011;53228;51.380;0.098;2023-10-08T07:48:56;18.80;;;5.43;;
66421;SDS011;53228;51.380;0.098;2023-10-08T07:51:26;13.50;;;5.95;;
66421;SDS011;53228;51.380;0.098;2023-10-08T07:53:54;19.17;;;5.47;;
66421;SDS011;53228;51.380;0.098;2023-10-08T07:56:25;13.93;;;5.88;;
66421;SDS011;53228;51.380;0.098;2023-10-08T07:58:53;19.90;;;5.82;;
66421;SDS011;53228;51.380;0.098;2023-10-08T08:01:23;14.90;;;5.68;;
66421;SDS011;53228;51.380;0.098;2023-10-08T08:03:54;23.25;;;5.93;;
66421;SDS011;53228;51.380;0.098;2023-10-08T08:06:25;20.45;;;6.22;;
66421;SDS011;53228;51.380;0.098;2023-10-08T08:08:53;24.73;;;7.10;;
66421;SDS011;53228;51.380;0.098;2023-10-08T08:11:22;22.10;;;6.60;;
66421;SDS011;53228;51.380;0.098;2023-10-08T08:13:53;28.65;;;7.38;;
66421;SDS011;53228;51.380;0.098;2023-10-08T08:16:21;26.52;;;7.28;;
66421;SDS011;53228;51.380;0.098;2023-10-08T08:18:52;22.00;;;6.60;;
66421;SDS011;53228;51.380;0.098;2023-10-08T08:21:24;19.45;;;6.85;;
66421;SDS011;53228;51.380;0.098;2023-10-08T08:23:52;22.13;;;6.40;;
66421;SDS011;53228;51.380;0.098;2023-10-08T08:26:31;21.02;;;6.80;;
66421;SDS011;53228;51.380;0.098;2023-10-08T08:29:06;24.42;;;7.22;;
66421;SDS011;53228;51.380;0.098;2023-10-08T08:31:36;29.23;;;7.05;;
66421;SDS011;53228;51.380;0.098;2023-10-08T08:34:03;19.10;;;6.25;;
66421;SDS011;53228;51.380;0.098;2023-10-08T08:36:41;26.08;;;6.35;;
66421;SDS011;53228;51.380;0.098;2023-10-08T08:39:16;24.85;;;7.68;;
66421;SDS011;53228;51.380;0.098;2023-10-08T08:41:59;21.80;;;6.22;;
66421;SDS011;53228;51.380;0.098;2023-10-08T08:44:28;22.33;;;6.45;;
66421;SDS011;53228;51.380;0.098;2023-10-08T08:47:00;15.10;;;5.70;;
66421;SDS011;53228;51.380;0.098;2023-10-08T08:49:35;37.88;;;7.13;;
66421;SDS011;53228;51.380;0.098;2023-10-08T08:52:04;19.90;;;5.90;;
66421;SDS011;53228;51.380;0.098;2023-10-08T08:54:32;20.98;;;5.70;;
66421;SDS011;53228;51.380;0.098;2023-10-08T08:57:01;20.10;;;5.32;;
66421;SDS011;53228;51.380;0.098;2023-10-08T08:59:44;13.18;;;5.57;;
66421;SDS011;53228;51.380;0.098;2023-10-08T09:02:20;19.90;;;5.53;;
66421;SDS011;53228;51.380;0.098;2023-10-08T09:04:48;18.65;;;6.20;;
66421;SDS011;53228;51.380;0.098;2023-10-08T09:07:20;19.92;;;6.60;;
66421;SDS011;53228;51.380;0.098;2023-10-08T09:09:48;20.88;;;5.93;;
66421;SDS011;53228;51.380;0.098;2023-10-08T09:12:17;17.10;;;5.90;;
66421;SDS011;53228;51.380;0.098;2023-10-08T09:14:45;17.85;;;5.90;;
66421;SDS011;53228;51.380;0.098;2023-10-08T09:17:13;16.55;;;5.57;;
66421;SDS011;53228;51.380;0.098;2023-10-08T09:19:45;17.75;;;5.30;;
66421;SDS011;53228;51.380;0.098;2023-10-08T09:22:12;16.35;;;6.78;;
66421;SDS011;53228;51.380;0.098;2023-10-08T09:24:42;23.38;;;5.93;;
66421;SDS011;53228;51.380;0.098;2023-10-08T09:27:10;17.85;;;5.82;;
66421;SDS011;53228;51.380;0.098;2023-10-08T09:29:41;16.45;;;5.00;;
66421;SDS011;53228;51.380;0.098;2023-10-08T09:32:10;16.58;;;5.15;;
66421;SDS011;53228;51.380;0.098;2023-10-08T09:34:40;13.05;;;4.03;;
66421;SDS011;53228;51.380;0.098;2023-10-08T09:37:10;14.77;;;4.40;;
66421;SDS011;53228;51.380;0.098;2023-10-08T09:39:38;20.92;;;5.25;;
66421;SDS011;53228;51.380;0.098;2023-10-08T09:42:07;12.85;;;5.03;;
66421;SDS011;53228;51.380;0.098;2023-10-08T09:44:41;12.50;;;4.18;;
66421;SDS011;53228;51.380;0.098;2023-10-08T09:47:10;11.18;;;4.68;;
66421;SDS011;53228;51.380;0.098;2023-10-08T09:49:39;17.92;;;4.53;;
66421;SDS011;53228;51.380;0.098;2023-10-08T09:52:10;10.65;;;4.53;;
66421;SDS011;53228;51.380;0.098;2023-10-08T09:54:43;11.85;;;4.82;;
66421;SDS011;53228;51.380;0.098;2023-10-08T09:57:11;12.30;;;4.38;;
66421;SDS011;53228;51.380;0.098;2023-10-08T09:59:39;7.88;;;3.85;;
66421;SDS011;53228;51.380;0.098;2023-10-08T10:02:10;12.18;;;3.92;;
66421;SDS011;53228;51.380;0.098;2023-10-08T10:04:45;10.52;;;3.50;;
66421;SDS011;53228;51.380;0.098;2023-10-08T10:07:14;7.47;;;3.97;;
66421;SDS011;53228;51.380;0.098;2023-10-08T10:09:44;10.35;;;3.75;;
66421;SDS011;53228;51.380;0.098;2023-10-08T10:12:17;7.47;;;3.70;;
66421;SDS011;53228;51.380;0.098;2023-10-08T10:14:48;5.05;;;2.63;;
66421;SDS011;53228;51.380;0.098;2023-10-08T10:17:22;6.05;;;2.80;;
66421;SDS011;53228;51.380;0.098;2023-10-08T10:20:12;5.47;;;2.92;;
66421;SDS011;53228;51.380;0.098;2023-10-08T10:22:43;5.38;;;2.70;;
66421;SDS011;53228;51.380;0.098;2023-10-08T10:25:15;7.10;;;2.95;;
66421;SDS011;53228;51.380;0.098;2023-10-08T10:30:20;6.78;;;2.60;;
66421;SDS011;53228;51.380;0.098;2023-10-08T10:32:52;7.57;;;3.45;;
66421;SDS011;53228;51.380;0.098;2023-10-08T10:35:20;10.80;;;3.55;;
66421;SDS011;53228;51.380;0.098;2023-10-08T10:37:48;9.90;;;2.95;;
66421;SDS011;53228;51.380;0.098;2023-10-08T10:40:22;7.68;;;3.30;;
66421;SDS011;53228;51.380;0.098;2023-10-08T10:43:06;5.85;;;3.47;;
66421;SDS011;53228;51.380;0.098;2023-10-08T10:45:36;9.45;;;3.67;;
66421;SDS011;53228;51.380;0.098;2023-10-08T10:48:10;7.35;;;3.40;;
66421;SDS011;53228;51.380;0.098;2023-10-08T10:50:50;4.72;;;3.33;;
66421;SDS011;53228;51.380;0.098;2023-10-08T10:53:34;10.63;;;3.22;;
66421;SDS011;53228;51.380;0.098;2023-10-08T10:56:25;7.15;;;3.13;;
66421;SDS011;53228;51.380;0.098;2023-10-08T10:59:00;6.30;;;2.83;;
66421;SDS011;53228;51.380;0.098;2023-10-08T11:01:46;4.45;;;2.75;;
66421;SDS011;53228;51.380;0.098;2023-10-08T11:04:19;7.88;;;2.95;;
66421;SDS011;53228;51.380;0.098;2023-10-08T11:06:56;6.40;;;3.00;;
66421;SDS011;53228;51.380;0.098;2023-10-08T11:09:26;5.28;;;2.83;;
66421;SDS011;53228;51.380;0.098;2023-10-08T11:12:07;5.97;;;2.78;;
66421;SDS011;53228;51.380;0.098;2023-10-08T11:14:39;5.65;;;3.20;;
66421;SDS011;53228;51.380;0.098;2023-10-08T11:17:16;6.20;;;2.85;;
66421;SDS011;53228;51.380;0.098;2023-10-08T11:19:52;6.88;;;2.63;;
66421;SDS011;53228;51.380;0.098;2023-10-08T11:22:20;7.28;;;2.75;;
66421;SDS011;53228;51.380;0.098;2023-10-08T11:24:50;5.88;;;2.70;;
66421;SDS011;53228;51.380;0.098;2023-10-08T11:27:21;7.47;;;3.30;;
66421;SDS011;53228;51.380;0.098;2023-10-08T11:30:04;6.75;;;2.90;;
66421;SDS011;53228;51.380;0.098;2023-10-08T11:32:38;3.97;;;2.55;;
66421;SDS011;53228;51.380;0.098;2023-10-08T11:35:09;5.85;;;2.75;;
66421;SDS011;53228;51.380;0.098;2023-10-08T11:37:47;5.18;;;2.70;;
66421;SDS011;53228;51.380;0.098;2023-10-08T11:40:25;4.65;;;2.60;;
66421;SDS011;53228;51.380;0.098;2023-10-08T11:43:00;4.30;;;2.60;;
66421;SDS011;53228;51.380;0.098;2023-10-08T11:45:30;7.03;;;2.53;;
66421;SDS011;53228;51.380;0.098;2023-10-08T11:48:06;6.53;;;2.50;;
66421;SDS011;53228;51.380;0.098;2023-10-08T11:50:40;5.55;;;2.40;;
66421;SDS011;53228;51.380;0.098;2023-10-08T11:53:08;6.63;;;2.60;;
66421;SDS011;53228;51.380;0.098;2023-10-08T11:55:39;3.50;;;2.17;;
66421;SDS011;53228;51.380;0.098;2023-10-08T11:58:11;3.85;;;2.20;;
66421;SDS011;53228;51.380;0.098;2023-10-08T12:00:47;5.72;;;2.38;;
66421;SDS011;53228;51.380;0.098;2023-10-08T12:03:22;3.20;;;2.13;;
66421;SDS011;53228;51.380;0.098;2023-10-08T12:05:53;4.53;;;2.83;;
66421;SDS011;53228;51.380;0.098;2023-10-08T12:08:26;4.25;;;2.58;;
66421;SDS011;53228;51.380;0.098;2023-10-08T12:10:55;5.57;;;2.53;;
66421;SDS011;53228;51.380;0.098;2023-10-08T12:13:23;5.15;;;2.60;;
66421;SDS011;53228;51.380;0.098;2023-10-08T12:15:55;3.83;;;2.17;;
66421;SDS011;53228;51.380;0.098;2023-10-08T12:18:33;3.53;;;2.22;;
66421;SDS011;53228;51.380;0.098;2023-10-08T12:21:08;5.25;;;2.83;;
66421;SDS011;53228;51.380;0.098;2023-10-08T12:23:38;5.30;;;2.40;;
66421;SDS011;53228;51.380;0.098;2023-10-08T12:26:06;3.42;;;2.10;;
66421;SDS011;53228;51.380;0.098;2023-10-08T12:28:38;3.78;;;2.22;;
66421;SDS011;53228;51.380;0.098;2023-10-08T12:31:06;6.55;;;2.80;;
66421;SDS011;53228;51.380;0.098;2023-10-08T12:33:37;5.18;;;2.60;;
66421;SDS011;53228;51.380;0.098;2023-10-08T12:36:05;4.72;;;2.38;;
66421;SDS011;53228;51.380;0.098;2023-10-08T12:38:40;4.60;;;2.25;;
66421;SDS011;53228;51.380;0.098;2023-10-08T12:41:09;4.63;;;2.03;;
66421;SDS011;53228;51.380;0.098;2023-10-08T12:43:40;3.83;;;1.95;;
66421;SDS011;53228;51.380;0.098;2023-10-08T12:46:20;4.15;;;2.60;;
66421;SDS011;53228;51.380;0.098;2023-10-08T12:48:52;5.90;;;2.45;;
66421;SDS011;53228;51.380;0.098;2023-10-08T12:51:21;8.15;;;2.47;;
66421;SDS011;53228;51.380;0.098;2023-10-08T12:53:55;4.28;;;2.17;;
66421;SDS011;53228;51.380;0.098;2023-10-08T12:56:26;6.55;;;3.20;;
66421;SDS011;53228;51.380;0.098;2023-10-08T12:59:07;6.68;;;2.55;;
66421;SDS011;53228;51.380;0.098;2023-10-08T13:01:35;4.88;;;2.83;;
66421;SDS011;53228;51.380;0.098;2023-10-08T13:04:03;3.70;;;2.20;;
66421;SDS011;53228;51.380;0.098;2023-10-08T13:06:43;3.78;;;2.35;;
66421;SDS011;53228;51.380;0.098;2023-10-08T13:09:12;4.75;;;2.20;;
66421;SDS011;53228;51.380;0.098;2023-10-08T13:11:40;5.47;;;2.05;;
66421;SDS011;53228;51.380;0.098;2023-10-08T13:14:10;3.65;;;2.10;;
66421;SDS011;53228;51.380;0.098;2023-10-08T13:16:39;3.20;;;1.88;;
66421;SDS011;53228;51.380;0.098;2023-10-08T13:19:07;5.93;;;2.10;;
66421;SDS011;53228;51.380;0.098;2023-10-08T13:21:36;5.13;;;1.92;;
66421;SDS011;53228;51.380;0.098;2023-10-08T13:24:04;4.28;;;2.08;;
66421;SDS011;53228;51.380;0.098;2023-10-08T13:26:36;5.78;;;2.00;;
66421;SDS011;53228;51.380;0.098;2023-10-08T13:29:05;3.88;;;1.88;;
66421;SDS011;53228;51.380;0.098;2023-10-08T13:31:34;6.20;;;2.38;;
66421;SDS011;53228;51.380;0.098;2023-10-08T13:34:04;3.38;;;2.08;;
66421;SDS011;53228;51.380;0.098;2023-10-08T13:36:36;3.33;;;1.80;;
66421;SDS011;53228;51.380;0.098;2023-10-08T13:39:07;3.13;;;1.80;;
66421;SDS011;53228;51.380;0.098;2023-10-08T13:41:37;3.40;;;1.92;;
66421;SDS011;53228;51.380;0.098;2023-10-08T13:44:09;4.78;;;2.22;;
66421;SDS011;53228;51.380;0.098;2023-10-08T13:46:39;4.15;;;2.30;;
66421;SDS011;53228;51.380;0.098;2023-10-08T13:49:16;4.45;;;2.08;;
66421;SDS011;53228;51.380;0.098;2023-10-08T13:51:46;3.75;;;1.67;;
66421;SDS011;53228;51.380;0.098;2023-10-08T13:54:17;9.48;;;2.00;;
66421;SDS011;53228;51.380;0.098;2023-10-08T13:56:47;4.22;;;1.73;;
66421;SDS011;53228;51.380;0.098;2023-10-08T13:59:16;4.53;;;2.00;;
66421;SDS011;53228;51.380;0.098;2023-10-08T14:01:44;3.47;;;2.20;;
66421;SDS011;53228;51.380;0.098;2023-10-08T14:04:19;3.88;;;1.80;;
66421;SDS011;53228;51.380;0.098;2023-10-08T14:06:48;2.58;;;1.77;;
66421;SDS011;53228;51.380;0.098;2023-10-08T14:09:20;5.18;;;1.80;;
66421;SDS011;53228;51.380;0.098;2023-10-08T14:12:05;3.83;;;2.10;;
66421;SDS011;53228;51.380;0.098;2023-10-08T14:14:37;4.50;;;1.92;;
66421;SDS011;53228;51.380;0.098;2023-10-08T14:17:11;6.53;;;2.08;;
66421;SDS011;53228;51.380;0.098;2023-10-08T14:19:42;2.90;;;1.75;;
66421;SDS011;53228;51.380;0.098;2023-10-08T14:22:14;2.67;;;1.88;;
66421;SDS011;53228;51.380;0.098;2023-10-08T14:24:42;3.33;;;1.63;;
66421;SDS011;53228;51.380;0.098;2023-10-08T14:27:14;6.80;;;2.28;;
66421;SDS011;53228;51.380;0.098;2023-10-08T14:29:43;3.78;;;1.75;;
66421;SDS011;53228;51.380;0.098;2023-10-08T14:32:14;3.30;;;1.65;;
66421;SDS011;53228;51.380;0.098;2023-10-08T14:34:44;4.95;;;1.75;;
66421;SDS011;53228;51.380;0.098;2023-10-08T14:37:14;4.53;;;1.95;;
66421;SDS011;53228;51.380;0.098;2023-10-08T14:40:01;3.80;;;2.15;;
66421;SDS011;53228;51.380;0.098;2023-10-08T14:42:47;3.88;;;1.80;;
66421;SDS011;53228;51.380;0.098;2023-10-08T14:45:31;3.70;;;1.35;;
66421;SDS011;53228;51.380;0.098;2023-10-08T14:48:06;3.40;;;1.80;;
66421;SDS011;53228;51.380;0.098;2023-10-08T14:50:39;3.83;;;1.92;;
66421;SDS011;53228;51.380;0.098;2023-10-08T14:53:08;3.35;;;1.77;;
66421;SDS011;53228;51.380;0.098;2023-10-08T14:55:35;2.67;;;1.80;;
66421;SDS011;53228;51.380;0.098;2023-10-08T14:58:04;3.17;;;1.70;;
66421;SDS011;53228;51.380;0.098;2023-10-08T15:00:37;4.20;;;2.30;;
66421;SDS011;53228;51.380;0.098;2023-10-08T15:03:06;3.75;;;1.80;;
66421;SDS011;53228;51.380;0.098;2023-10-08T15:05:36;9.40;;;2.10;;
66421;SDS011;53228;51.380;0.098;2023-10-08T15:08:05;4.97;;;1.90;;
66421;SDS011;53228;51.380;0.098;2023-10-08T15:10:37;4.47;;;1.83;;
66421;SDS011;53228;51.380;0.098;2023-10-08T15:13:05;4.55;;;2.33;;
66421;SDS011;53228;51.380;0.098;2023-10-08T15:15:35;6.22;;;2.33;;
66421;SDS011;53228;51.380;0.098;2023-10-08T15:18:02;3.63;;;1.60;;
66421;SDS011;53228;51.380;0.098;2023-10-08T15:20:30;3.83;;;2.00;;
66421;SDS011;53228;51.380;0.098;2023-10-08T15:23:00;4.18;;;1.98;;
66421;SDS011;53228;51.380;0.098;2023-10-08T15:25:28;3.83;;;1.80;;